Besiktas Bosphorus — TCOG3 — position and weather

sailwx.info

Track history (hours):
 
Tides and Currents Weather Stations Pressure Air Temp Water Temp Dewpoint Dewpoint Depression Visibility Wind Speed Wind Dir Waves Ship Positions

Besiktas Bosphorus

Last reported at 2014-Sep-20 13:03 UTC. Time now 2014-Sep-20 16:00 UTC.
Position N 37°50' E 024°36'.

Length 274 m; draft 8.6 m.

Type: Tanker. MMSI: 271000817.

Date/timePositionNaut miles runAvg speedWind from/ knotsBaromVisibWave heightAir tempDewpointWater temp
2014-Sep-20 13:03N 37°50' E 024°36'612.6
2014-Sep-20 12:33N 37°45' E 024°33'27 8.4
2014-Sep-20 09:19N 37°21' E 024°15'1010.9
2014-Sep-20 08:24N 37°13' E 024°08'2512.9
2014-Sep-20 06:29N 36°54' E 023°48'443 9.2
2014-Sep-18 06:03N 36°24' E 014°37'4 8.3
2014-Sep-18 05:33N 36°25' E 014°32'9 8.7
2014-Sep-18 04:32N 36°27' E 014°21'9 9.0
2014-Sep-18 03:33N 36°29' E 014°11'9 8.5
2014-Sep-18 02:33N 36°32' E 014°00'9 8.7
2014-Sep-18 01:33N 36°34' E 013°50'9 8.8
2014-Sep-18 00:33N 36°37' E 013°40'11 8.9
2014-Sep-17 23:18N 36°40' E 013°26'9 8.6
2014-Sep-17 22:17N 36°42' E 013°16'14 8.4
2014-Sep-17 20:33N 36°45' E 012°58'9 8.6
2014-Sep-17 19:33N 36°48' E 012°48'9 8.6
2014-Sep-17 18:33N 36°50' E 012°38'9 8.6
2014-Sep-17 17:33N 36°53' E 012°27'9 8.6
2014-Sep-17 16:33N 36°55' E 012°17'1311.3
2014-Sep-17 15:27N 36°59' E 012°02'1213.3
2014-Sep-17 14:34N 37°05' E 011°49'1413.5
2014-Sep-17 13:32N 37°12' E 011°34'1110.3
2014-Sep-17 12:29N 37°17' E 011°22'8 8.3
2014-Sep-17 11:33N 37°21' E 011°14'9 8.6
2014-Sep-17 10:33N 37°24' E 011°04'9 8.9
2014-Sep-17 09:33N 37°26' E 010°53'10 8.9
2014-Sep-17 08:23N 37°29' E 010°40'911.2
2014-Sep-17 07:33N 37°31' E 010°29'1515.1
2014-Sep-17 06:34N 37°34' E 010°10'1111.0
2014-Sep-17 05:33N 37°34' E 009°56'20 9.7
2014-Sep-17 03:28N 37°35' E 009°31'27 9.3
2014-Sep-17 00:33N 37°36' E 008°57'9 8.7
2014-Sep-16 23:32N 37°36' E 008°45'9 8.7
2014-Sep-16 22:31N 37°34' E 008°34'9 9.1
2014-Sep-16 21:33N 37°34' E 008°23'9 9.3
2014-Sep-16 20:33N 37°33' E 008°12'9 9.2
2014-Sep-16 19:33N 37°32' E 008°00'9 9.0
2014-Sep-16 18:33N 37°31' E 007°49'9 9.0
2014-Sep-16 17:30N 37°30' E 007°37'8 8.8
2014-Sep-16 16:33N 37°29' E 007°27'9 8.6
2014-Sep-16 15:33N 37°29' E 007°16'89 9.5
2014-Sep-16 06:13N 37°19' E 005°25'18 8.8
2014-Sep-16 04:10N 37°18' E 005°02'6 9.1
2014-Sep-16 03:30N 37°17' E 004°55'48 9.7
2014-Sep-15 22:30N 37°11' E 003°54'1210.1
2014-Sep-15 21:21N 37°10' E 003°40'1110.0
2014-Sep-15 20:12N 37°08' E 003°26'710.0
2014-Sep-15 19:27N 37°07' E 003°16'8 9.0
2014-Sep-15 18:32N 37°05' E 003°06'13 9.0
2014-Sep-15 17:04N 37°03' E 002°50'5 9.0
2014-Sep-15 16:33N 37°03' E 002°44'9 9.2
2014-Sep-15 15:33N 37°01' E 002°33'11 9.3
2014-Sep-15 14:19N 36°59' E 002°19'1313.5
2014-Sep-15 13:22N 36°57' E 002°03'8 9.9
2014-Sep-15 12:33N 36°55' E 001°53'11 9.5
2014-Sep-15 11:26N 36°54' E 001°40'59 9.8
2014-Sep-15 05:22N 36°44' E 000°27'8 9.3
2014-Sep-15 04:32N 36°42' E 000°17'9 9.4
2014-Sep-15 03:33N 36°41' E 000°05'10 9.7
2014-Sep-15 02:33N 36°39' W 000°06'10 9.7
2014-Sep-15 01:33N 36°37' W 000°18'29 9.4
2014-Sep-14 22:30N 36°33' W 000°53'21 9.3
2014-Sep-14 20:17N 36°29' W 001°19'8 9.4
2014-Sep-14 19:26N 36°28' W 001°29'3311.1
2014-Sep-14 16:29N 36°23' W 002°09'10 9.4
2014-Sep-14 15:27N 36°21' W 002°20'14210.1
2014-Sep-14 01:27N 35°60' W 005°14'5413.8
2014-Sep-13 21:30N 35°56' W 006°21'1313.5
2014-Sep-13 20:33N 35°59' W 006°37'1313.5
2014-Sep-13 19:33N 36°02' W 006°53'1313.0
2014-Sep-13 18:33N 36°05' W 007°08'1813.0
2014-Sep-13 17:10N 36°09' W 007°30'1313.0
2014-Sep-13 16:11N 36°12' W 007°46'4912.6
2014-Sep-13 12:18N 36°23' W 008°45'1012.9
2014-Sep-13 11:31N 36°26' W 008°57'1313.4
2014-Sep-13 10:33N 36°29' W 009°13'1413.2
2014-Sep-13 09:29N 36°36' W 009°27'3411.1
2014-Sep-13 06:28N 37°09' W 009°31'2512.7
2014-Sep-13 04:33N 37°30' W 009°14'1212.5
2014-Sep-13 03:33N 37°40' W 009°06'1212.2
2014-Sep-13 02:33N 37°51' W 008°57'7 6.7
2014-Sep-13 01:31N 37°57' W 008°53'0 0.0
2014-Sep-13 00:33N 37°57' W 008°53'0 0.0
2014-Sep-12 23:32N 37°57' W 008°53'0 0.0
2014-Sep-12 22:33N 37°57' W 008°53'0 0.0
2014-Sep-12 21:33N 37°57' W 008°53'0 0.0
2014-Sep-12 20:33N 37°57' W 008°53'0 0.0
2014-Sep-12 19:32N 37°57' W 008°53'0 0.0
2014-Sep-12 18:33N 37°57' W 008°53'0 0.0
2014-Sep-12 17:33N 37°57' W 008°53'0 0.0
2014-Sep-12 16:31N 37°57' W 008°53'0 0.0
2014-Sep-12 15:32N 37°57' W 008°53'0 0.0
2014-Sep-12 14:33N 37°57' W 008°53'0 0.0
2014-Sep-12 13:29N 37°57' W 008°53'0 0.0
2014-Sep-12 12:33N 37°57' W 008°53'0 0.0
2014-Sep-12 11:32N 37°57' W 008°53'0 0.0
2014-Sep-12 10:32N 37°57' W 008°53'0 0.0
2014-Sep-12 09:33N 37°57' W 008°53'0 0.0
2014-Sep-12 08:33N 37°57' W 008°53'0 0.0
2014-Sep-12 07:33N 37°57' W 008°53'0 0.0
2014-Sep-12 06:33N 37°57' W 008°53'0 0.0
2014-Sep-12 05:33N 37°57' W 008°53'0 0.0
2014-Sep-12 04:31N 37°57' W 008°53'0 0.0
2014-Sep-12 03:33N 37°57' W 008°53'0 0.0
2014-Sep-12 02:33N 37°57' W 008°53'0 0.0
2014-Sep-12 01:32N 37°57' W 008°53'0 0.0
2014-Sep-12 00:33N 37°57' W 008°53'0 0.0
2014-Sep-11 23:33N 37°57' W 008°53'0 0.0
2014-Sep-11 22:33N 37°57' W 008°53'0 0.0
2014-Sep-11 21:33N 37°57' W 008°53'0 0.0
2014-Sep-11 20:33N 37°57' W 008°53'0 0.0
2014-Sep-11 19:33N 37°57' W 008°53'0 0.0
2014-Sep-11 18:33N 37°57' W 008°53'0 0.0
2014-Sep-11 17:33N 37°57' W 008°53'0 0.0
2014-Sep-11 16:33N 37°57' W 008°53'0 0.0
2014-Sep-11 15:33N 37°57' W 008°53'0 0.0
2014-Sep-11 14:33N 37°57' W 008°53'0 0.0
2014-Sep-11 13:33N 37°57' W 008°53'0 0.0
2014-Sep-11 12:33N 37°57' W 008°53'0 0.0
2014-Sep-11 11:33N 37°57' W 008°53'0 0.0
2014-Sep-11 10:33N 37°57' W 008°53'0 0.0
2014-Sep-11 09:33N 37°57' W 008°53'0 0.0
2014-Sep-11 08:34N 37°57' W 008°53'  
Track history (hours):
 
Tides and Currents Weather Stations Pressure Air Temp Water Temp Dewpoint Dewpoint Depression Visibility Wind Speed Wind Dir Waves Ship Positions

Besiktas Bosphorus

Last reported at 2014-Sep-20 13:03 UTC. Time now 2014-Sep-20 16:00 UTC.
Position N 37°50' E 024°36'.

Length 274 m; draft 8.6 m.

Type: Tanker. MMSI: 271000817.

Date/timePositionNaut miles runAvg speedWind from/ knotsBaromVisibWave heightAir tempDewpointWater temp
2014-Sep-20 13:03N 37°50' E 024°36'612.6
2014-Sep-20 12:33N 37°45' E 024°33'27 8.4
2014-Sep-20 09:19N 37°21' E 024°15'1010.9
2014-Sep-20 08:24N 37°13' E 024°08'2512.9
2014-Sep-20 06:29N 36°54' E 023°48'443 9.2
2014-Sep-18 06:03N 36°24' E 014°37'4 8.3
2014-Sep-18 05:33N 36°25' E 014°32'9 8.7
2014-Sep-18 04:32N 36°27' E 014°21'9 9.0
2014-Sep-18 03:33N 36°29' E 014°11'9 8.5
2014-Sep-18 02:33N 36°32' E 014°00'9 8.7
2014-Sep-18 01:33N 36°34' E 013°50'9 8.8
2014-Sep-18 00:33N 36°37' E 013°40'11 8.9
2014-Sep-17 23:18N 36°40' E 013°26'9 8.6
2014-Sep-17 22:17N 36°42' E 013°16'14 8.4
2014-Sep-17 20:33N 36°45' E 012°58'9 8.6
2014-Sep-17 19:33N 36°48' E 012°48'9 8.6
2014-Sep-17 18:33N 36°50' E 012°38'9 8.6
2014-Sep-17 17:33N 36°53' E 012°27'9 8.6
2014-Sep-17 16:33N 36°55' E 012°17'1311.3
2014-Sep-17 15:27N 36°59' E 012°02'1213.3
2014-Sep-17 14:34N 37°05' E 011°49'1413.5
2014-Sep-17 13:32N 37°12' E 011°34'1110.3
2014-Sep-17 12:29N 37°17' E 011°22'8 8.3
2014-Sep-17 11:33N 37°21' E 011°14'9 8.6
2014-Sep-17 10:33N 37°24' E 011°04'9 8.9
2014-Sep-17 09:33N 37°26' E 010°53'10 8.9
2014-Sep-17 08:23N 37°29' E 010°40'911.2
2014-Sep-17 07:33N 37°31' E 010°29'1515.1
2014-Sep-17 06:34N 37°34' E 010°10'1111.0
2014-Sep-17 05:33N 37°34' E 009°56'20 9.7
2014-Sep-17 03:28N 37°35' E 009°31'27 9.3
2014-Sep-17 00:33N 37°36' E 008°57'9 8.7
2014-Sep-16 23:32N 37°36' E 008°45'9 8.7
2014-Sep-16 22:31N 37°34' E 008°34'9 9.1
2014-Sep-16 21:33N 37°34' E 008°23'9 9.3
2014-Sep-16 20:33N 37°33' E 008°12'9 9.2
2014-Sep-16 19:33N 37°32' E 008°00'9 9.0
2014-Sep-16 18:33N 37°31' E 007°49'9 9.0
2014-Sep-16 17:30N 37°30' E 007°37'8 8.8
2014-Sep-16 16:33N 37°29' E 007°27'9 8.6
2014-Sep-16 15:33N 37°29' E 007°16'89 9.5
2014-Sep-16 06:13N 37°19' E 005°25'18 8.8
2014-Sep-16 04:10N 37°18' E 005°02'6 9.1
2014-Sep-16 03:30N 37°17' E 004°55'48 9.7
2014-Sep-15 22:30N 37°11' E 003°54'1210.1
2014-Sep-15 21:21N 37°10' E 003°40'1110.0
2014-Sep-15 20:12N 37°08' E 003°26'710.0
2014-Sep-15 19:27N 37°07' E 003°16'8 9.0
2014-Sep-15 18:32N 37°05' E 003°06'13 9.0
2014-Sep-15 17:04N 37°03' E 002°50'5 9.0
2014-Sep-15 16:33N 37°03' E 002°44'9 9.2
2014-Sep-15 15:33N 37°01' E 002°33'11 9.3
2014-Sep-15 14:19N 36°59' E 002°19'1313.5
2014-Sep-15 13:22N 36°57' E 002°03'8 9.9
2014-Sep-15 12:33N 36°55' E 001°53'11 9.5
2014-Sep-15 11:26N 36°54' E 001°40'59 9.8
2014-Sep-15 05:22N 36°44' E 000°27'8 9.3
2014-Sep-15 04:32N 36°42' E 000°17'9 9.4
2014-Sep-15 03:33N 36°41' E 000°05'10 9.7
2014-Sep-15 02:33N 36°39' W 000°06'10 9.7
2014-Sep-15 01:33N 36°37' W 000°18'29 9.4
2014-Sep-14 22:30N 36°33' W 000°53'21 9.3
2014-Sep-14 20:17N 36°29' W 001°19'8 9.4
2014-Sep-14 19:26N 36°28' W 001°29'3311.1
2014-Sep-14 16:29N 36°23' W 002°09'10 9.4
2014-Sep-14 15:27N 36°21' W 002°20'14210.1
2014-Sep-14 01:27N 35°60' W 005°14'5413.8
2014-Sep-13 21:30N 35°56' W 006°21'1313.5
2014-Sep-13 20:33N 35°59' W 006°37'1313.5
2014-Sep-13 19:33N 36°02' W 006°53'1313.0
2014-Sep-13 18:33N 36°05' W 007°08'1813.0
2014-Sep-13 17:10N 36°09' W 007°30'1313.0
2014-Sep-13 16:11N 36°12' W 007°46'4912.6
2014-Sep-13 12:18N 36°23' W 008°45'1012.9
2014-Sep-13 11:31N 36°26' W 008°57'1313.4
2014-Sep-13 10:33N 36°29' W 009°13'1413.2
2014-Sep-13 09:29N 36°36' W 009°27'3411.1
2014-Sep-13 06:28N 37°09' W 009°31'2512.7
2014-Sep-13 04:33N 37°30' W 009°14'1212.5
2014-Sep-13 03:33N 37°40' W 009°06'1212.2
2014-Sep-13 02:33N 37°51' W 008°57'7 6.7
2014-Sep-13 01:31N 37°57' W 008°53'0 0.0
2014-Sep-13 00:33N 37°57' W 008°53'0 0.0
2014-Sep-12 23:32N 37°57' W 008°53'0 0.0
2014-Sep-12 22:33N 37°57' W 008°53'0 0.0
2014-Sep-12 21:33N 37°57' W 008°53'0 0.0
2014-Sep-12 20:33N 37°57' W 008°53'0 0.0
2014-Sep-12 19:32N 37°57' W 008°53'0 0.0
2014-Sep-12 18:33N 37°57' W 008°53'0 0.0
2014-Sep-12 17:33N 37°57' W 008°53'0 0.0
2014-Sep-12 16:31N 37°57' W 008°53'0 0.0
2014-Sep-12 15:32N 37°57' W 008°53'0 0.0
2014-Sep-12 14:33N 37°57' W 008°53'0 0.0
2014-Sep-12 13:29N 37°57' W 008°53'0 0.0
2014-Sep-12 12:33N 37°57' W 008°53'0 0.0
2014-Sep-12 11:32N 37°57' W 008°53'0 0.0
2014-Sep-12 10:32N 37°57' W 008°53'0 0.0
2014-Sep-12 09:33N 37°57' W 008°53'0 0.0
2014-Sep-12 08:33N 37°57' W 008°53'0 0.0
2014-Sep-12 07:33N 37°57' W 008°53'0 0.0
2014-Sep-12 06:33N 37°57' W 008°53'0 0.0
2014-Sep-12 05:33N 37°57' W 008°53'0 0.0
2014-Sep-12 04:31N 37°57' W 008°53'0 0.0
2014-Sep-12 03:33N 37°57' W 008°53'0 0.0
2014-Sep-12 02:33N 37°57' W 008°53'0 0.0
2014-Sep-12 01:32N 37°57' W 008°53'0 0.0
2014-Sep-12 00:33N 37°57' W 008°53'0 0.0
2014-Sep-11 23:33N 37°57' W 008°53'0 0.0
2014-Sep-11 22:33N 37°57' W 008°53'0 0.0
2014-Sep-11 21:33N 37°57' W 008°53'0 0.0
2014-Sep-11 20:33N 37°57' W 008°53'0 0.0
2014-Sep-11 19:33N 37°57' W 008°53'0 0.0
2014-Sep-11 18:33N 37°57' W 008°53'0 0.0
2014-Sep-11 17:33N 37°57' W 008°53'0 0.0
2014-Sep-11 16:33N 37°57' W 008°53'0 0.0
2014-Sep-11 15:33N 37°57' W 008°53'0 0.0
2014-Sep-11 14:33N 37°57' W 008°53'0 0.0
2014-Sep-11 13:33N 37°57' W 008°53'0 0.0
2014-Sep-11 12:33N 37°57' W 008°53'0 0.0
2014-Sep-11 11:33N 37°57' W 008°53'0 0.0
2014-Sep-11 10:33N 37°57' W 008°53'0 0.0
2014-Sep-11 09:33N 37°57' W 008°53'0 0.0
2014-Sep-11 08:34N 37°57' W 008°53'  

Dump ship's entire track history